CES2812 ZBAD-ZSNJ
Flight info
| Callsign | CES2812 |
|---|---|
| Flight time | N/A |
| Altitude | 26600 |
| Route | ELKUR4K ELKUR W40 YQG W142 DALIM A593 DPX A470 OF OF71F |
| Aircraft | A321/M-SDE3FGHIRWY/LB1 |
Departure
| Time | 2026-04-12 08:17 |
|---|---|
| Airport | Beijing Daxing International Airport (ZBAD) |
Arrival
| Time | N/A |
|---|---|
| Airport | Nanjing Lukou International Airport (ZSNJ) |
| Time | Latitude | Longitude | Altitude | Speed | Heading |
|---|---|---|---|---|---|
| 2026-04-12 07:10 | 39.50924 | 116.41694 | 90 ft | 0 kts | 185° |
| 2026-04-12 08:05 | 39.50936 | 116.41695 | 90 ft | 2 kts | 185° |
| 2026-04-12 08:05 | 39.50951 | 116.41698 | 90 ft | 2 kts | 185° |
| 2026-04-12 08:05 | 39.50966 | 116.41699 | 90 ft | 2 kts | 185° |
| 2026-04-12 08:06 | 39.50981 | 116.41701 | 90 ft | 2 kts | 185° |
| 2026-04-12 08:06 | 39.50990 | 116.41702 | 90 ft | 2 kts | 180° |
| 2026-04-12 08:06 | 39.51004 | 116.41696 | 90 ft | 2 kts | 140° |
| 2026-04-12 08:06 | 39.51013 | 116.41681 | 90 ft | 2 kts | 108° |
| 2026-04-12 08:07 | 39.51015 | 116.41672 | 90 ft | 1 kts | 91° |
| 2026-04-12 08:07 | 39.51015 | 116.41665 | 90 ft | 0 kts | 95° |
| 2026-04-12 08:08 | 39.51015 | 116.41667 | 90 ft | 0 kts | 95° |
| 2026-04-12 08:09 | 39.51013 | 116.41688 | 90 ft | 3 kts | 96° |
| 2026-04-12 08:09 | 39.51009 | 116.41736 | 90 ft | 6 kts | 95° |
| 2026-04-12 08:09 | 39.51007 | 116.41807 | 90 ft | 8 kts | 87° |
| 2026-04-12 08:09 | 39.51015 | 116.41885 | 90 ft | 9 kts | 82° |
| 2026-04-12 08:10 | 39.51023 | 116.41972 | 90 ft | 10 kts | 83° |
| 2026-04-12 08:10 | 39.51032 | 116.42066 | 90 ft | 10 kts | 83° |
| 2026-04-12 08:10 | 39.51040 | 116.42142 | 90 ft | 7 kts | 72° |
| 2026-04-12 08:10 | 39.51088 | 116.42173 | 90 ft | 8 kts | 355° |
| 2026-04-12 08:11 | 39.51152 | 116.42163 | 90 ft | 9 kts | 353° |
| 2026-04-12 08:11 | 39.51222 | 116.42152 | 90 ft | 10 kts | 353° |
| 2026-04-12 08:11 | 39.51297 | 116.42140 | 90 ft | 11 kts | 353° |
| 2026-04-12 08:11 | 39.51361 | 116.42130 | 90 ft | 6 kts | 353° |
| 2026-04-12 08:12 | 39.51402 | 116.42149 | 90 ft | 6 kts | 51° |
| 2026-04-12 08:12 | 39.51416 | 116.42212 | 90 ft | 7 kts | 81° |
| 2026-04-12 08:12 | 39.51424 | 116.42286 | 90 ft | 8 kts | 82° |
| 2026-04-12 08:12 | 39.51432 | 116.42368 | 90 ft | 9 kts | 82° |
| 2026-04-12 08:13 | 39.51440 | 116.42457 | 90 ft | 10 kts | 83° |
| 2026-04-12 08:13 | 39.51449 | 116.42552 | 90 ft | 11 kts | 82° |
| 2026-04-12 08:13 | 39.51459 | 116.42653 | 90 ft | 11 kts | 82° |
| 2026-04-12 08:13 | 39.51469 | 116.42760 | 90 ft | 12 kts | 83° |
| 2026-04-12 08:14 | 39.51479 | 116.42870 | 90 ft | 12 kts | 82° |
| 2026-04-12 08:14 | 39.51490 | 116.42983 | 90 ft | 13 kts | 82° |
| 2026-04-12 08:14 | 39.51497 | 116.43054 | 90 ft | 5 kts | 80° |
| 2026-04-12 08:14 | 39.51524 | 116.43094 | 90 ft | 6 kts | 19° |
| 2026-04-12 08:15 | 39.51572 | 116.43109 | 90 ft | 7 kts | 13° |
| 2026-04-12 08:15 | 39.51623 | 116.43136 | 90 ft | 8 kts | 34° |
| 2026-04-12 08:15 | 39.51653 | 116.43201 | 90 ft | 9 kts | 85° |
| 2026-04-12 08:15 | 39.51649 | 116.43236 | 90 ft | 0 kts | 102° |
| 2026-04-12 08:16 | 39.51627 | 116.43359 | 90 ft | 43 kts | 103° |
| 2026-04-12 08:16 | 39.51500 | 116.44062 | 91 ft | 114 kts | 103° |
| 2026-04-12 08:16 | 39.51274 | 116.45325 | 109 ft | 168 kts | 101° |
| 2026-04-12 08:16 | 39.51010 | 116.46806 | 661 ft | 170 kts | 102° |
| 2026-04-12 08:17 | 39.50729 | 116.48298 | 1350 ft | 171 kts | 101° |
| 2026-04-12 08:17 | 39.50465 | 116.49770 | 1994 ft | 173 kts | 100° |
| 2026-04-12 08:17 | 39.50188 | 116.51350 | 2440 ft | 188 kts | 100° |
| 2026-04-12 08:17 | 39.49884 | 116.53082 | 2841 ft | 207 kts | 101° |
| 2026-04-12 08:18 | 39.49552 | 116.54951 | 3265 ft | 226 kts | 101° |
| 2026-04-12 08:18 | 39.49177 | 116.57045 | 3685 ft | 249 kts | 101° |
| 2026-04-12 08:18 | 39.48771 | 116.59296 | 4255 ft | 265 kts | 101° |
| 2026-04-12 08:18 | 39.48335 | 116.61696 | 4731 ft | 286 kts | 102° |
| 2026-04-12 08:19 | 39.47500 | 116.64016 | 5388 ft | 290 kts | 124° |
| 2026-04-12 08:19 | 39.46213 | 116.65963 | 6130 ft | 283 kts | 130° |
| 2026-04-12 08:19 | 39.44913 | 116.67835 | 6837 ft | 284 kts | 130° |
| 2026-04-12 08:19 | 39.43587 | 116.69740 | 7500 ft | 288 kts | 130° |
| 2026-04-12 08:20 | 39.42242 | 116.71673 | 8146 ft | 291 kts | 131° |
| 2026-04-12 08:20 | 39.40877 | 116.73637 | 8806 ft | 294 kts | 131° |
| 2026-04-12 08:20 | 39.39519 | 116.75593 | 9443 ft | 297 kts | 131° |
| 2026-04-12 08:20 | 39.38128 | 116.77595 | 10069 ft | 300 kts | 131° |
| 2026-04-12 08:21 | 39.36730 | 116.79609 | 10497 ft | 311 kts | 132° |
| 2026-04-12 08:21 | 39.35239 | 116.81733 | 10777 ft | 327 kts | 135° |
| 2026-04-12 08:21 | 39.33454 | 116.83661 | 11041 ft | 341 kts | 147° |
| 2026-04-12 08:21 | 39.31259 | 116.84936 | 11274 ft | 353 kts | 169° |
| 2026-04-12 08:22 | 39.28805 | 116.85345 | 11560 ft | 365 kts | 175° |
| 2026-04-12 08:22 | 39.26238 | 116.85706 | 11990 ft | 372 kts | 175° |
| 2026-04-12 08:22 | 39.23665 | 116.86078 | 12569 ft | 374 kts | 175° |
| 2026-04-12 08:22 | 39.21080 | 116.86460 | 13147 ft | 376 kts | 175° |
| 2026-04-12 08:23 | 39.18481 | 116.86849 | 13552 ft | 378 kts | 175° |
| 2026-04-12 08:23 | 39.15863 | 116.87244 | 13661 ft | 378 kts | 175° |
| 2026-04-12 08:23 | 39.13270 | 116.87637 | 13663 ft | 377 kts | 175° |
| 2026-04-12 08:23 | 39.10643 | 116.88034 | 13665 ft | 377 kts | 175° |
| 2026-04-12 08:24 | 39.08044 | 116.88428 | 13666 ft | 376 kts | 175° |
| 2026-04-12 08:24 | 39.05426 | 116.88825 | 13665 ft | 376 kts | 175° |
| 2026-04-12 08:24 | 39.02856 | 116.89215 | 13666 ft | 376 kts | 175° |
| 2026-04-12 08:24 | 39.00234 | 116.89614 | 13667 ft | 376 kts | 175° |
| 2026-04-12 08:25 | 38.97653 | 116.90005 | 13664 ft | 376 kts | 175° |
| 2026-04-12 08:25 | 38.95039 | 116.90402 | 13665 ft | 377 kts | 175° |
| 2026-04-12 08:25 | 38.92443 | 116.90794 | 13665 ft | 377 kts | 175° |
| 2026-04-12 08:25 | 38.89840 | 116.91188 | 13663 ft | 378 kts | 175° |
| 2026-04-12 08:26 | 38.87237 | 116.91582 | 13664 ft | 378 kts | 175° |
| 2026-04-12 08:26 | 38.84611 | 116.91982 | 13668 ft | 378 kts | 175° |
| 2026-04-12 08:26 | 38.81998 | 116.92378 | 13664 ft | 378 kts | 175° |
| 2026-04-12 08:26 | 38.79381 | 116.92773 | 13662 ft | 378 kts | 175° |
| 2026-04-12 08:27 | 38.76799 | 116.93162 | 13659 ft | 378 kts | 175° |
| 2026-04-12 08:27 | 38.74177 | 116.93558 | 13663 ft | 378 kts | 174° |
| 2026-04-12 08:27 | 38.71557 | 116.93954 | 13664 ft | 378 kts | 175° |
| 2026-04-12 08:27 | 38.68953 | 116.94348 | 13662 ft | 377 kts | 175° |
| 2026-04-12 08:28 | 38.66346 | 116.94740 | 13664 ft | 377 kts | 175° |
| 2026-04-12 08:28 | 38.63745 | 116.95129 | 13767 ft | 382 kts | 175° |
| 2026-04-12 08:28 | 38.61082 | 116.95529 | 14301 ft | 384 kts | 175° |
| 2026-04-12 08:28 | 38.58426 | 116.95929 | 14877 ft | 385 kts | 175° |
| 2026-04-12 08:29 | 38.55748 | 116.96332 | 15353 ft | 389 kts | 175° |
| 2026-04-12 08:29 | 38.53057 | 116.96735 | 15806 ft | 393 kts | 175° |
| 2026-04-12 08:29 | 38.50318 | 116.97146 | 16275 ft | 396 kts | 175° |
| 2026-04-12 08:29 | 38.47587 | 116.97555 | 16728 ft | 399 kts | 175° |
| 2026-04-12 08:30 | 38.44810 | 116.97971 | 17180 ft | 402 kts | 175° |
| 2026-04-12 08:30 | 38.42050 | 116.98385 | 17607 ft | 406 kts | 175° |
| 2026-04-12 08:30 | 38.39209 | 116.98810 | 18039 ft | 409 kts | 175° |
| 2026-04-12 08:30 | 38.36383 | 116.99231 | 18457 ft | 411 kts | 175° |
| 2026-04-12 08:31 | 38.33567 | 116.99651 | 18886 ft | 414 kts | 176° |
| 2026-04-12 08:31 | 38.30695 | 117.00079 | 19304 ft | 416 kts | 176° |
| 2026-04-12 08:31 | 38.27800 | 117.00510 | 19715 ft | 418 kts | 176° |
| 2026-04-12 08:31 | 38.24896 | 117.00942 | 20146 ft | 420 kts | 176° |
| 2026-04-12 08:32 | 38.22016 | 117.01371 | 20548 ft | 422 kts | 176° |
| 2026-04-12 08:32 | 38.19090 | 117.01806 | 20934 ft | 424 kts | 176° |
| 2026-04-12 08:32 | 38.16148 | 117.02243 | 21328 ft | 426 kts | 176° |
| 2026-04-12 08:32 | 38.13206 | 117.02679 | 21709 ft | 428 kts | 176° |
| 2026-04-12 08:33 | 38.10263 | 117.03116 | 22090 ft | 429 kts | 176° |
| 2026-04-12 08:33 | 38.07280 | 117.03558 | 22411 ft | 432 kts | 176° |
| 2026-04-12 08:33 | 38.04286 | 117.03999 | 22455 ft | 432 kts | 176° |
| 2026-04-12 08:33 | 38.01329 | 117.04435 | 22464 ft | 432 kts | 176° |
| 2026-04-12 08:34 | 37.98312 | 117.04881 | 22467 ft | 432 kts | 176° |
| 2026-04-12 08:34 | 37.95344 | 117.05318 | 22467 ft | 432 kts | 176° |
| 2026-04-12 08:34 | 37.92372 | 117.05755 | 22467 ft | 432 kts | 176° |
| 2026-04-12 08:34 | 37.89370 | 117.06197 | 22468 ft | 433 kts | 176° |
| 2026-04-12 08:35 | 37.86371 | 117.06640 | 22467 ft | 433 kts | 176° |
| 2026-04-12 08:35 | 37.83384 | 117.07078 | 22470 ft | 433 kts | 176° |
| 2026-04-12 08:35 | 37.80409 | 117.07517 | 22472 ft | 433 kts | 176° |
| 2026-04-12 08:35 | 37.77392 | 117.07961 | 22467 ft | 433 kts | 176° |
| 2026-04-12 08:36 | 37.74423 | 117.08397 | 22472 ft | 433 kts | 176° |
| 2026-04-12 08:36 | 37.71407 | 117.08839 | 22473 ft | 433 kts | 176° |
| 2026-04-12 08:36 | 37.68444 | 117.09273 | 22472 ft | 433 kts | 176° |
| 2026-04-12 08:36 | 37.65430 | 117.09714 | 22475 ft | 433 kts | 176° |
| 2026-04-12 08:37 | 37.62455 | 117.10149 | 22473 ft | 433 kts | 176° |
| 2026-04-12 08:37 | 37.59442 | 117.10590 | 22474 ft | 433 kts | 176° |
| 2026-04-12 08:37 | 37.56469 | 117.11025 | 22475 ft | 434 kts | 176° |
| 2026-04-12 08:37 | 37.53484 | 117.11460 | 22474 ft | 434 kts | 176° |
| 2026-04-12 08:38 | 37.50487 | 117.11897 | 22476 ft | 434 kts | 176° |
| 2026-04-12 08:38 | 37.47456 | 117.12337 | 22477 ft | 434 kts | 176° |
| 2026-04-12 08:38 | 37.44456 | 117.12775 | 22477 ft | 434 kts | 176° |
| 2026-04-12 08:38 | 37.41490 | 117.13206 | 22477 ft | 435 kts | 176° |
| 2026-04-12 08:39 | 37.38466 | 117.13646 | 22478 ft | 435 kts | 176° |
| 2026-04-12 08:39 | 37.35446 | 117.14085 | 22477 ft | 435 kts | 176° |
| 2026-04-12 08:39 | 37.32477 | 117.14515 | 22475 ft | 435 kts | 175° |
| 2026-04-12 08:39 | 37.29472 | 117.14950 | 22471 ft | 434 kts | 175° |
| 2026-04-12 08:40 | 37.26451 | 117.15387 | 22468 ft | 434 kts | 175° |
| 2026-04-12 08:40 | 37.23442 | 117.15823 | 22466 ft | 434 kts | 175° |
| 2026-04-12 08:40 | 37.20471 | 117.16254 | 22467 ft | 435 kts | 175° |
| 2026-04-12 08:40 | 37.17471 | 117.16688 | 22465 ft | 435 kts | 175° |
| 2026-04-12 08:41 | 37.14463 | 117.17123 | 22467 ft | 435 kts | 175° |
| 2026-04-12 08:41 | 37.11423 | 117.17561 | 22467 ft | 435 kts | 175° |
| 2026-04-12 08:41 | 37.08412 | 117.17996 | 22466 ft | 435 kts | 175° |
| 2026-04-12 08:41 | 37.05419 | 117.18429 | 22465 ft | 437 kts | 175° |
| 2026-04-12 08:42 | 37.02413 | 117.18861 | 22466 ft | 437 kts | 175° |
| 2026-04-12 08:42 | 36.99396 | 117.19295 | 22467 ft | 436 kts | 175° |
| 2026-04-12 08:42 | 36.96365 | 117.19730 | 22467 ft | 435 kts | 175° |
| 2026-04-12 08:42 | 36.93334 | 117.20166 | 22463 ft | 435 kts | 175° |
| 2026-04-12 08:43 | 36.90345 | 117.20595 | 22468 ft | 435 kts | 175° |
| 2026-04-12 08:43 | 36.87346 | 117.21025 | 22472 ft | 435 kts | 175° |
| 2026-04-12 08:43 | 36.84307 | 117.21411 | 22468 ft | 435 kts | 177° |
| 2026-04-12 08:43 | 36.81298 | 117.21599 | 22472 ft | 434 kts | 181° |
| 2026-04-12 08:44 | 36.78297 | 117.21605 | 22478 ft | 434 kts | 182° |
| 2026-04-12 08:44 | 36.75289 | 117.21583 | 22478 ft | 434 kts | 182° |
| 2026-04-12 08:44 | 36.72249 | 117.21558 | 22484 ft | 433 kts | 182° |
| 2026-04-12 08:44 | 36.69267 | 117.21534 | 22501 ft | 433 kts | 182° |
| 2026-04-12 08:45 | 36.66254 | 117.21513 | 22505 ft | 433 kts | 182° |
| 2026-04-12 08:45 | 36.63220 | 117.21489 | 22510 ft | 433 kts | 182° |
| 2026-04-12 08:45 | 36.60227 | 117.21468 | 22519 ft | 433 kts | 182° |
| 2026-04-12 08:45 | 36.57188 | 117.21448 | 22529 ft | 433 kts | 182° |
| 2026-04-12 08:46 | 36.54171 | 117.21426 | 22532 ft | 433 kts | 182° |
| 2026-04-12 08:46 | 36.51178 | 117.21403 | 22539 ft | 433 kts | 182° |
| 2026-04-12 08:46 | 36.45152 | 117.21388 | 22536 ft | 434 kts | 180° |
| 2026-04-12 08:47 | 36.42129 | 117.21687 | 22535 ft | 436 kts | 175° |
| 2026-04-12 08:47 | 36.39141 | 117.22353 | 22543 ft | 438 kts | 169° |
| 2026-04-12 08:47 | 36.36876 | 117.23103 | 22536 ft | 439 kts | 166° |